createdAt,value
2023-05-19T00:00:41.160Z,96.03
2023-05-19T00:01:41.141Z,96.02
2023-05-19T00:02:41.273Z,98.03
2023-05-19T00:03:41.218Z,94.83
2023-05-19T00:04:41.205Z,96.19
2023-05-19T00:05:41.231Z,95.35
2023-05-19T00:06:41.203Z,95.91
2023-05-19T00:07:41.205Z,97.81
2023-05-19T00:08:41.210Z,94.38
2023-05-19T00:09:41.225Z,95.71
2023-05-19T00:10:41.222Z,97.98
2023-05-19T00:11:41.244Z,94.55
2023-05-19T00:12:41.290Z,94.21
2023-05-19T00:13:41.250Z,94.97
2023-05-19T00:14:41.329Z,96.72
2023-05-19T00:15:41.348Z,94.11
2023-05-19T00:16:41.372Z,91.57
2023-05-19T00:17:41.373Z,95.51
2023-05-19T00:18:41.403Z,95.47
2023-05-19T00:19:41.392Z,94.61
2023-05-19T00:20:41.434Z,95.18
2023-05-19T00:21:41.622Z,93.03
2023-05-19T00:22:41.414Z,93.53
2023-05-19T00:23:41.421Z,95.89
2023-05-19T00:24:41.467Z,93.29
2023-05-19T00:25:41.428Z,94.52
2023-05-19T00:26:41.446Z,96.15
2023-05-19T00:27:41.468Z,95.11
2023-05-19T00:28:41.447Z,96.00
2023-05-19T00:29:41.491Z,95.24
2023-05-19T00:30:41.513Z,94.37
2023-05-19T00:31:41.555Z,95.55
2023-05-19T00:32:41.585Z,94.38
2023-05-19T00:33:41.593Z,96.97
2023-05-19T00:34:41.554Z,93.45
2023-05-19T00:35:41.558Z,97.04
2023-05-19T00:36:41.590Z,95.05
2023-05-19T00:37:41.624Z,95.89
2023-05-19T00:38:41.636Z,94.64
2023-05-19T00:39:41.638Z,95.87
2023-05-19T00:40:41.648Z,95.40
2023-05-19T00:41:41.642Z,93.86
2023-05-19T00:42:41.640Z,95.18
2023-05-19T00:43:41.658Z,91.77
2023-05-19T00:44:41.704Z,96.83
2023-05-19T00:45:41.723Z,96.72
2023-05-19T00:46:41.758Z,96.81
2023-05-19T00:47:41.758Z,96.14
2023-05-19T00:48:41.750Z,94.06
2023-05-19T00:49:41.683Z,94.15
2023-05-19T00:50:41.709Z,92.77
2023-05-19T00:51:41.683Z,93.02
2023-05-19T00:52:41.730Z,94.13
2023-05-19T00:53:41.690Z,92.17
2023-05-19T00:54:41.742Z,93.59
2023-05-19T00:55:41.752Z,93.94
2023-05-19T00:56:41.764Z,93.19
2023-05-19T00:57:41.759Z,94.28
2023-05-19T00:58:41.771Z,93.27
2023-05-19T00:59:41.770Z,92.01
2023-05-19T01:00:41.850Z,92.99
2023-05-19T01:01:41.861Z,91.87
2023-05-19T01:02:41.936Z,92.97
2023-05-19T01:03:41.900Z,92.95
2023-05-19T01:04:41.948Z,91.32
2023-05-19T01:05:41.854Z,91.14
2023-05-19T01:06:41.899Z,93.23
2023-05-19T01:07:41.885Z,90.87
2023-05-19T01:08:41.894Z,93.60
2023-05-19T01:09:41.957Z,94.47
2023-05-19T01:10:41.965Z,92.42
2023-05-19T01:11:41.887Z,89.86
2023-05-19T01:12:41.930Z,93.77
2023-05-19T01:13:42.344Z,89.99
2023-05-19T01:14:41.936Z,92.62
2023-05-19T01:15:41.935Z,90.86
2023-05-19T01:16:41.983Z,90.17
2023-05-19T01:17:41.974Z,90.38
2023-05-19T01:18:41.970Z,89.17
2023-05-19T01:19:41.957Z,92.61
2023-05-19T01:20:41.964Z,92.41
2023-05-19T01:21:41.964Z,90.33
2023-05-19T01:22:42.019Z,88.39
2023-05-19T01:23:42.007Z,90.59
2023-05-19T01:24:42.062Z,89.82
2023-05-19T01:25:42.013Z,90.86
2023-05-19T01:26:42.011Z,90.99
2023-05-19T01:27:42.019Z,91.54
2023-05-19T01:28:42.023Z,91.96
2023-05-19T01:29:42.027Z,95.56
2023-05-19T01:30:41.998Z,91.96
2023-05-19T01:31:42.034Z,90.62
2023-05-19T01:32:42.051Z,90.80
2023-05-19T01:33:42.009Z,92.79
2023-05-19T01:34:42.023Z,88.64
2023-05-19T01:35:42.018Z,93.64
2023-05-19T01:36:42.018Z,91.96
2023-05-19T01:37:42.029Z,91.52
2023-05-19T01:38:42.018Z,89.54
2023-05-19T01:39:42.031Z,92.12
2023-05-19T01:40:42.028Z,88.25
2023-05-19T01:41:42.027Z,89.93
2023-05-19T01:42:42.024Z,90.54
2023-05-19T01:43:42.030Z,90.03
2023-05-19T01:44:42.022Z,90.67
2023-05-19T01:45:42.053Z,89.26
2023-05-19T01:46:42.038Z,92.21
2023-05-19T01:47:42.064Z,90.93
2023-05-19T01:48:42.019Z,88.17
2023-05-19T01:49:42.039Z,90.31
2023-05-19T01:50:42.034Z,89.66
2023-05-19T01:51:42.064Z,86.76
2023-05-19T01:52:42.108Z,89.79
2023-05-19T01:53:42.054Z,90.33
2023-05-19T01:54:42.083Z,90.32
2023-05-19T01:55:42.119Z,87.10
2023-05-19T01:56:42.193Z,91.19
2023-05-19T01:57:42.140Z,89.26
2023-05-19T01:58:42.135Z,87.19
2023-05-19T01:59:42.147Z,90.81
2023-05-19T02:00:42.171Z,91.61
2023-05-19T02:01:42.269Z,90.68
2023-05-19T02:02:42.233Z,88.20
2023-05-19T02:03:42.250Z,90.66
2023-05-19T02:04:42.352Z,88.24
2023-05-19T02:05:42.225Z,88.35
2023-05-19T02:06:42.257Z,88.16
2023-05-19T02:07:42.239Z,87.82
2023-05-19T02:08:42.225Z,88.54
2023-05-19T02:09:42.277Z,88.78
2023-05-19T02:10:42.258Z,91.41
2023-05-19T02:11:42.235Z,89.01
2023-05-19T02:12:42.237Z,88.56
2023-05-19T02:13:42.215Z,87.11
2023-05-19T02:14:42.207Z,86.77
2023-05-19T02:15:42.381Z,91.51
2023-05-19T02:16:42.234Z,89.04
2023-05-19T02:17:42.271Z,90.48
2023-05-19T02:18:42.244Z,88.45
2023-05-19T02:19:42.191Z,86.87
2023-05-19T02:20:42.166Z,86.87
2023-05-19T02:21:42.260Z,86.47
2023-05-19T02:22:42.226Z,88.59
2023-05-19T02:23:42.203Z,89.80
2023-05-19T02:24:42.215Z,89.06
2023-05-19T02:25:42.211Z,88.00
2023-05-19T02:26:42.218Z,90.51
2023-05-19T02:27:42.235Z,87.87
2023-05-19T02:28:42.207Z,88.01
2023-05-19T02:29:42.214Z,86.59
2023-05-19T02:30:42.213Z,85.87
2023-05-19T02:31:42.271Z,87.96
2023-05-19T02:32:42.261Z,88.04
2023-05-19T02:33:42.241Z,90.24
2023-05-19T02:34:42.233Z,90.60
2023-05-19T02:35:42.182Z,87.03
2023-05-19T02:36:42.200Z,88.46
2023-05-19T02:37:42.201Z,88.26
2023-05-19T02:38:42.202Z,88.88
2023-05-19T02:39:42.183Z,86.03
2023-05-19T02:40:42.173Z,83.13
2023-05-19T02:41:42.193Z,86.32
2023-05-19T02:42:42.202Z,87.74
2023-05-19T02:43:42.166Z,85.13
2023-05-19T02:44:42.173Z,88.00
2023-05-19T02:45:42.205Z,85.79
2023-05-19T02:46:42.306Z,85.30
2023-05-19T02:47:42.204Z,86.37
2023-05-19T02:48:42.175Z,85.67
2023-05-19T02:49:42.184Z,86.31
2023-05-19T02:50:42.203Z,86.60
2023-05-19T02:51:42.175Z,85.02
2023-05-19T02:52:42.171Z,85.84
2023-05-19T02:53:42.178Z,85.30
2023-05-19T02:54:42.194Z,86.44
2023-05-19T02:55:42.149Z,84.68
2023-05-19T02:56:42.154Z,85.74
2023-05-19T02:57:42.143Z,87.97
2023-05-19T02:58:42.147Z,84.10
2023-05-19T02:59:42.156Z,84.21
2023-05-19T03:00:42.132Z,85.32
2023-05-19T03:01:42.171Z,86.40
2023-05-19T03:02:42.257Z,83.86
2023-05-19T03:03:42.258Z,84.74
2023-05-19T03:04:42.167Z,88.04
2023-05-19T03:05:42.161Z,87.11
2023-05-19T03:06:42.167Z,87.83
2023-05-19T03:07:42.149Z,83.67
2023-05-19T03:08:42.519Z,83.82
2023-05-19T03:09:42.120Z,84.26
2023-05-19T03:10:42.128Z,84.03
2023-05-19T03:11:42.101Z,84.98
2023-05-19T03:12:42.104Z,85.76
2023-05-19T03:13:42.118Z,82.76
2023-05-19T03:14:42.125Z,83.98
2023-05-19T03:15:42.126Z,85.74
2023-05-19T03:16:42.384Z,85.17
2023-05-19T03:17:42.211Z,83.67
2023-05-19T03:18:42.212Z,84.75
2023-05-19T03:19:42.092Z,84.27
2023-05-19T03:20:42.098Z,82.02
2023-05-19T03:21:42.114Z,83.08
2023-05-19T03:22:42.083Z,84.81
2023-05-19T03:23:42.081Z,86.41
2023-05-19T03:24:42.084Z,85.10
2023-05-19T03:25:42.078Z,85.06
2023-05-19T03:26:42.106Z,84.48
2023-05-19T03:27:42.053Z,80.88
2023-05-19T03:28:42.071Z,82.20
2023-05-19T03:29:42.126Z,81.82
2023-05-19T03:30:42.070Z,82.14
2023-05-19T03:31:42.082Z,82.09
2023-05-19T03:32:42.147Z,82.93
2023-05-19T03:33:42.113Z,84.89
2023-05-19T03:34:42.064Z,81.32
2023-05-19T03:35:42.066Z,84.85
2023-05-19T03:36:42.079Z,84.70
2023-05-19T03:37:42.042Z,81.83
2023-05-19T03:38:42.089Z,84.69
2023-05-19T03:39:42.052Z,82.63
2023-05-19T03:40:42.104Z,82.33
2023-05-19T03:41:42.089Z,85.23
2023-05-19T03:42:42.046Z,82.74
2023-05-19T03:43:42.052Z,82.84
2023-05-19T03:44:42.052Z,83.88
2023-05-19T03:45:42.051Z,82.82
2023-05-19T03:46:42.197Z,83.39
2023-05-19T03:47:42.077Z,81.19
2023-05-19T03:48:42.036Z,84.33
2023-05-19T03:49:42.041Z,82.91
2023-05-19T03:50:42.078Z,84.76
2023-05-19T03:51:42.046Z,80.55
2023-05-19T03:52:42.042Z,83.15
2023-05-19T03:53:42.053Z,81.58
2023-05-19T03:54:42.036Z,84.48
2023-05-19T03:55:42.047Z,79.54
2023-05-19T03:56:42.055Z,81.36
2023-05-19T03:57:42.023Z,79.57
2023-05-19T03:58:42.051Z,80.43
2023-05-19T03:59:42.044Z,81.77
2023-05-19T04:00:42.051Z,81.29
2023-05-19T04:01:42.070Z,81.73
2023-05-19T04:02:42.116Z,82.88
2023-05-19T04:03:42.080Z,80.30
2023-05-19T04:04:42.058Z,82.10
2023-05-19T04:05:42.087Z,81.94
2023-05-19T04:06:42.048Z,79.67
2023-05-19T04:07:42.026Z,83.39
2023-05-19T04:08:42.044Z,79.53
2023-05-19T04:09:42.022Z,80.47
2023-05-19T04:10:42.030Z,81.48
2023-05-19T04:11:42.056Z,78.64
2023-05-19T04:12:42.024Z,78.46
2023-05-19T04:13:42.037Z,79.28
2023-05-19T04:14:41.996Z,84.12
2023-05-19T04:15:42.017Z,80.68
2023-05-19T04:16:42.016Z,79.65
2023-05-19T04:17:42.069Z,79.86
2023-05-19T04:18:42.049Z,80.68
2023-05-19T04:19:42.017Z,78.75
2023-05-19T04:20:42.017Z,81.18
2023-05-19T04:21:42.011Z,81.06
2023-05-19T04:22:42.021Z,78.30
2023-05-19T04:23:42.039Z,78.75
2023-05-19T04:24:42.040Z,80.34
2023-05-19T04:25:42.012Z,77.98
2023-05-19T04:26:42.050Z,79.03
2023-05-19T04:27:42.018Z,80.24
2023-05-19T04:28:42.022Z,79.87
2023-05-19T04:29:42.039Z,77.88
2023-05-19T04:30:42.042Z,80.45
2023-05-19T04:31:42.150Z,81.24
2023-05-19T04:32:42.032Z,80.95
2023-05-19T04:33:42.040Z,81.46
2023-05-19T04:34:42.007Z,77.19
2023-05-19T04:35:42.050Z,77.60
2023-05-19T04:36:42.031Z,76.49
2023-05-19T04:37:42.028Z,75.92
2023-05-19T04:38:42.030Z,76.43
2023-05-19T04:39:42.041Z,80.56
2023-05-19T04:40:42.017Z,78.53
2023-05-19T04:41:42.080Z,76.95
2023-05-19T04:42:42.084Z,74.78
2023-05-19T04:43:42.123Z,79.01
2023-05-19T04:44:42.074Z,76.62
2023-05-19T04:45:42.072Z,76.86
2023-05-19T04:46:42.146Z,79.85
2023-05-19T04:47:42.185Z,78.65
2023-05-19T04:48:42.105Z,79.69
2023-05-19T04:49:42.145Z,76.85
2023-05-19T04:50:42.144Z,76.11
2023-05-19T04:51:42.103Z,75.16
2023-05-19T04:52:42.129Z,79.74
2023-05-19T04:53:42.166Z,78.19
2023-05-19T04:54:42.145Z,78.18
2023-05-19T04:55:42.154Z,76.50
2023-05-19T04:56:42.175Z,75.85
2023-05-19T04:57:42.172Z,60.95
2023-05-19T04:58:42.213Z,58.06
2023-05-19T04:59:42.183Z,57.50
2023-05-19T05:00:42.191Z,52.03
2023-05-19T05:01:42.251Z,55.91
2023-05-19T05:02:42.316Z,52.39
2023-05-19T05:03:42.334Z,45.22
2023-05-19T05:04:42.206Z,45.31
2023-05-19T05:05:42.205Z,46.36
2023-05-19T05:06:42.242Z,46.11
2023-05-19T05:07:42.215Z,44.68
2023-05-19T05:08:42.218Z,40.71
2023-05-19T05:09:42.243Z,46.63
2023-05-19T05:10:42.254Z,42.50
2023-05-19T05:11:42.304Z,42.18
2023-05-19T05:12:42.299Z,38.45
2023-05-19T05:13:42.310Z,41.24
2023-05-19T05:14:42.319Z,42.54
2023-05-19T05:15:42.357Z,42.62
2023-05-19T05:16:42.385Z,44.45
2023-05-19T05:17:42.449Z,44.61
2023-05-19T05:18:44.616Z,47.67
2023-05-19T05:19:42.501Z,51.30
2023-05-19T05:20:42.499Z,51.85
2023-05-19T05:21:42.504Z,53.80
2023-05-19T05:22:42.519Z,56.44
2023-05-19T05:23:42.539Z,57.22
2023-05-19T05:24:42.579Z,59.90
2023-05-19T05:25:42.513Z,60.62
2023-05-19T05:26:42.550Z,58.19
2023-05-19T05:27:42.596Z,57.82
2023-05-19T05:28:42.583Z,61.57
2023-05-19T05:29:42.603Z,64.98
2023-05-19T05:30:42.611Z,65.17
2023-05-19T05:31:42.571Z,65.87
2023-05-19T05:32:42.716Z,68.39
2023-05-19T05:33:42.636Z,69.33
2023-05-19T05:34:42.548Z,69.34
2023-05-19T05:35:42.607Z,66.64
2023-05-19T05:36:42.598Z,70.77
2023-05-19T05:37:42.576Z,67.82
2023-05-19T05:38:42.569Z,69.90
2023-05-19T05:39:42.573Z,67.49
2023-05-19T05:40:42.587Z,71.32
2023-05-19T05:41:42.751Z,71.63
2023-05-19T05:42:42.571Z,73.57
2023-05-19T05:43:42.596Z,72.15
2023-05-19T05:44:42.576Z,73.43
2023-05-19T05:45:42.675Z,73.69
2023-05-19T05:46:42.609Z,72.40
2023-05-19T05:47:42.726Z,74.19
2023-05-19T05:48:42.631Z,74.16
2023-05-19T05:49:42.589Z,74.76
2023-05-19T05:50:42.643Z,77.54
2023-05-19T05:51:46.389Z,77.57
2023-05-19T05:52:43.583Z,77.79
2023-05-19T05:53:42.630Z,78.21
2023-05-19T05:54:42.640Z,78.92
2023-05-19T05:55:42.586Z,77.97
2023-05-19T05:56:42.568Z,80.50
2023-05-19T05:57:42.586Z,81.08
2023-05-19T05:58:42.610Z,79.65
2023-05-19T05:59:42.559Z,81.71
2023-05-19T06:00:42.554Z,81.12
2023-05-19T06:01:42.571Z,80.38
2023-05-19T06:02:42.620Z,83.47
2023-05-19T06:03:42.606Z,79.90
2023-05-19T06:04:42.547Z,79.85
2023-05-19T06:05:42.632Z,80.60
2023-05-19T06:06:42.524Z,82.90
2023-05-19T06:07:42.531Z,82.12
2023-05-19T06:08:42.556Z,82.70
2023-05-19T06:09:42.503Z,81.99
2023-05-19T06:10:43.621Z,86.85
2023-05-19T06:11:42.755Z,86.12
2023-05-19T06:12:42.668Z,88.54
2023-05-19T06:13:42.680Z,91.92
2023-05-19T06:14:42.641Z,91.23
2023-05-19T06:15:42.702Z,96.00
2023-05-19T06:16:42.694Z,96.44
2023-05-19T06:17:42.664Z,95.01
2023-05-19T06:18:42.660Z,95.42
2023-05-19T06:19:42.622Z,97.52
2023-05-19T06:20:42.642Z,98.59
2023-05-19T06:21:42.777Z,96.86
2023-05-19T06:22:42.635Z,99.53
2023-05-19T06:23:42.647Z,98.91
2023-05-19T06:24:42.649Z,99.10
2023-05-19T06:25:42.612Z,97.81
2023-05-19T06:26:42.625Z,98.69
2023-05-19T06:27:42.615Z,97.45
2023-05-19T06:28:42.600Z,98.19
2023-05-19T06:29:42.616Z,100.22
2023-05-19T06:30:42.634Z,100.65
2023-05-19T06:31:42.594Z,101.04
2023-05-19T06:32:42.650Z,99.03
2023-05-19T06:33:42.591Z,100.69
2023-05-19T06:34:42.609Z,102.04
2023-05-19T06:35:42.583Z,99.90
2023-05-19T06:36:42.761Z,101.26
2023-05-19T06:37:42.588Z,102.04
2023-05-19T06:38:42.571Z,100.53
2023-05-19T06:39:42.570Z,99.56
2023-05-19T06:40:42.571Z,103.24
2023-05-19T06:41:42.752Z,100.79
2023-05-19T06:42:42.615Z,102.11
2023-05-19T06:43:42.610Z,102.30
2023-05-19T06:44:42.612Z,99.97
2023-05-19T06:45:42.591Z,101.96
2023-05-19T06:46:42.791Z,104.71
2023-05-19T06:47:42.715Z,102.96
2023-05-19T06:48:42.613Z,102.56
2023-05-19T06:49:42.564Z,103.02
2023-05-19T06:50:42.585Z,104.83
2023-05-19T06:51:43.273Z,104.35
2023-05-19T06:52:42.597Z,105.47
2023-05-19T06:53:42.611Z,103.37
2023-05-19T06:54:42.648Z,102.76
2023-05-19T06:55:50.799Z,105.08
2023-05-19T06:56:43.758Z,105.29
2023-05-19T06:57:42.584Z,105.25
2023-05-19T06:58:42.574Z,105.56
2023-05-19T06:59:42.552Z,105.39
2023-05-19T07:00:42.536Z,107.22
2023-05-19T07:01:42.655Z,108.34
2023-05-19T07:02:42.584Z,105.23
2023-05-19T07:03:42.569Z,109.36
2023-05-19T07:04:42.548Z,108.75
2023-05-19T07:05:42.529Z,110.17
2023-05-19T07:06:42.500Z,106.48
2023-05-19T07:07:42.489Z,111.08
2023-05-19T07:08:42.480Z,108.70
2023-05-19T07:09:42.475Z,109.11
2023-05-19T07:10:42.492Z,111.24
2023-05-19T07:11:42.449Z,109.72
2023-05-19T07:12:42.452Z,105.69
2023-05-19T07:13:42.479Z,107.60
2023-05-19T07:14:42.478Z,108.27
2023-05-19T07:15:42.490Z,107.81
2023-05-19T07:16:42.454Z,107.92
2023-05-19T07:17:42.578Z,109.31
2023-05-19T07:18:42.526Z,108.67
2023-05-19T07:19:42.552Z,112.56
2023-05-19T07:20:42.587Z,107.69
2023-05-19T07:21:42.778Z,107.91
2023-05-19T07:22:42.691Z,110.45
2023-05-19T07:23:42.758Z,109.87
2023-05-19T07:24:42.779Z,110.09
2023-05-19T07:25:42.833Z,108.87
2023-05-19T07:26:43.284Z,107.19
2023-05-19T07:27:42.973Z,108.73
2023-05-19T07:28:43.047Z,109.59
2023-05-19T07:29:43.102Z,110.33
2023-05-19T07:30:43.157Z,111.02
2023-05-19T07:31:43.366Z,107.56
2023-05-19T07:32:43.302Z,110.02
2023-05-19T07:33:43.309Z,109.41
2023-05-19T07:34:43.342Z,108.70
2023-05-19T07:35:43.342Z,108.76
2023-05-19T07:36:43.306Z,112.03
2023-05-19T07:37:43.382Z,108.52
2023-05-19T07:38:43.391Z,110.17
2023-05-19T07:39:43.447Z,111.31
2023-05-19T07:40:43.497Z,105.50
2023-05-19T07:41:43.557Z,105.96
2023-05-19T07:42:43.605Z,112.61
2023-05-19T07:43:43.675Z,111.13
2023-05-19T07:44:43.773Z,110.23
2023-05-19T07:45:43.859Z,107.37
2023-05-19T07:46:44.273Z,104.75
2023-05-19T07:47:43.946Z,107.43
2023-05-19T07:48:43.958Z,105.90
2023-05-19T07:49:44.065Z,107.92
2023-05-19T07:50:44.077Z,104.31
2023-05-19T07:51:44.329Z,103.70
2023-05-19T07:52:44.235Z,108.21
2023-05-19T07:53:44.300Z,107.13
2023-05-19T07:54:44.319Z,103.97
2023-05-19T07:55:44.411Z,105.72
2023-05-19T07:56:44.793Z,106.31
2023-05-19T07:57:44.527Z,105.68
2023-05-19T07:58:44.612Z,105.95
2023-05-19T07:59:44.628Z,107.08
2023-05-19T08:00:44.688Z,107.37
2023-05-19T08:01:44.715Z,103.93
2023-05-19T08:02:44.896Z,107.78
2023-05-19T08:03:44.907Z,105.09
2023-05-19T08:04:45.011Z,104.15
2023-05-19T08:05:44.993Z,108.25
2023-05-19T08:06:45.029Z,107.51
2023-05-19T08:07:45.122Z,103.87
2023-05-19T08:08:45.149Z,108.12
2023-05-19T08:09:45.226Z,106.04
2023-05-19T08:10:45.298Z,108.06
2023-05-19T08:11:45.824Z,105.63
2023-05-19T08:12:45.387Z,106.93
2023-05-19T08:13:45.465Z,107.14
2023-05-19T08:14:45.544Z,104.66
2023-05-19T08:15:45.584Z,105.88
2023-05-19T08:16:45.654Z,104.50
2023-05-19T08:17:45.757Z,106.04
2023-05-19T08:18:45.791Z,101.09
2023-05-19T08:19:45.850Z,101.12
2023-05-19T08:20:45.917Z,101.79
2023-05-19T08:21:45.980Z,104.60
2023-05-19T08:22:45.976Z,104.36
2023-05-19T08:23:46.045Z,103.21
2023-05-19T08:24:46.146Z,101.98
2023-05-19T08:25:46.192Z,104.52
2023-05-19T08:26:46.281Z,102.20
2023-05-19T08:27:46.286Z,103.05
2023-05-19T08:28:46.332Z,103.71
2023-05-19T08:29:46.378Z,100.87
2023-05-19T08:30:46.448Z,99.07
2023-05-19T08:31:46.600Z,102.57
2023-05-19T08:32:46.564Z,101.69
2023-05-19T08:33:46.576Z,102.18
2023-05-19T08:34:46.625Z,100.21
2023-05-19T08:35:46.678Z,97.20
2023-05-19T08:36:46.849Z,93.32
2023-05-19T08:37:46.730Z,93.17
2023-05-19T08:38:46.756Z,98.88
2023-05-19T08:39:46.801Z,95.97
2023-05-19T08:40:46.858Z,102.24
2023-05-19T08:41:46.903Z,97.78
2023-05-19T08:42:46.957Z,100.70
2023-05-19T08:43:47.017Z,101.02
2023-05-19T08:44:47.042Z,97.18
2023-05-19T08:45:47.072Z,99.40
2023-05-19T08:46:47.114Z,101.48
2023-05-19T08:47:47.131Z,98.29
2023-05-19T08:48:47.159Z,99.39
2023-05-19T08:49:47.163Z,97.22
2023-05-19T08:50:47.192Z,99.49
2023-05-19T08:51:47.193Z,97.90
2023-05-19T08:52:50.260Z,103.05
2023-05-19T08:53:47.186Z,103.07
2023-05-19T08:54:47.165Z,100.48
2023-05-19T08:55:47.152Z,98.74
2023-05-19T08:56:47.341Z,92.49
2023-05-19T08:57:47.142Z,99.92
2023-05-19T08:58:47.120Z,95.20
2023-05-19T08:59:47.118Z,100.60
2023-05-19T09:00:47.153Z,96.63
2023-05-19T09:01:47.141Z,98.12
2023-05-19T09:02:55.477Z,98.21
2023-05-19T09:03:48.185Z,98.49
2023-05-19T09:04:47.118Z,96.66
2023-05-19T09:05:47.171Z,98.89
2023-05-19T09:06:47.077Z,99.83
2023-05-19T09:07:47.077Z,96.56
2023-05-19T09:08:47.079Z,96.42
2023-05-19T09:09:47.072Z,93.34
2023-05-19T09:10:47.034Z,92.95
2023-05-19T09:11:47.059Z,96.18
2023-05-19T09:12:47.025Z,96.28
2023-05-19T09:13:47.045Z,93.03
2023-05-19T09:14:47.115Z,98.58
2023-05-19T09:15:47.161Z,98.60
2023-05-19T09:16:47.297Z,97.72
2023-05-19T09:17:47.239Z,98.73
2023-05-19T09:18:47.327Z,89.25
2023-05-19T09:19:47.372Z,96.42
2023-05-19T09:20:47.381Z,95.68
2023-05-19T09:21:47.406Z,95.83
2023-05-19T09:22:47.490Z,97.53
2023-05-19T09:23:47.509Z,97.92
2023-05-19T09:24:47.565Z,96.98
2023-05-19T09:25:47.604Z,97.28
2023-05-19T09:26:47.600Z,96.67
2023-05-19T09:27:47.601Z,95.06
2023-05-19T09:28:47.649Z,96.32
2023-05-19T09:29:47.689Z,98.35
2023-05-19T09:30:47.769Z,93.69
2023-05-19T09:31:48.375Z,96.60
2023-05-19T09:32:47.943Z,97.75
2023-05-19T09:33:48.022Z,95.93
2023-05-19T09:34:48.006Z,97.46
2023-05-19T09:35:48.046Z,97.92
2023-05-19T09:36:48.327Z,99.62
2023-05-19T09:37:48.150Z,99.62
2023-05-19T09:38:48.240Z,99.46
2023-05-19T09:39:48.268Z,98.56
2023-05-19T09:40:48.356Z,98.12
2023-05-19T09:41:48.428Z,98.04
2023-05-19T09:42:48.468Z,97.20
2023-05-19T09:43:48.526Z,96.90
2023-05-19T09:44:48.616Z,96.14
2023-05-19T09:45:48.632Z,98.76
2023-05-19T09:46:48.729Z,97.70
2023-05-19T09:47:48.794Z,97.68
2023-05-19T09:48:48.812Z,97.35
2023-05-19T09:49:48.895Z,97.72
2023-05-19T09:50:48.968Z,96.84
2023-05-19T09:51:48.997Z,90.73
2023-05-19T09:52:49.092Z,94.59
2023-05-19T09:53:49.114Z,95.20
2023-05-19T09:54:49.187Z,96.46
2023-05-19T09:55:49.257Z,97.24
2023-05-19T09:56:49.347Z,94.97
2023-05-19T09:57:49.365Z,95.18
2023-05-19T09:58:49.444Z,98.12
2023-05-19T09:59:49.463Z,98.86
2023-05-19T10:00:49.530Z,94.67
2023-05-19T10:01:49.730Z,99.31
2023-05-19T10:02:49.718Z,95.99
2023-05-19T10:03:49.751Z,90.68
2023-05-19T10:04:49.843Z,96.35
2023-05-19T10:05:49.871Z,95.30
2023-05-19T10:06:50.014Z,94.18
2023-05-19T10:07:50.053Z,95.67
2023-05-19T10:08:50.061Z,99.17
2023-05-19T10:09:50.073Z,96.86
2023-05-19T10:10:50.148Z,94.79
2023-05-19T10:11:50.201Z,94.04
2023-05-19T10:12:50.270Z,93.90
2023-05-19T10:13:50.322Z,94.53
2023-05-19T10:14:50.396Z,97.52
2023-05-19T10:16:50.494Z,99.27
2023-05-19T10:17:50.467Z,96.53
2023-05-19T10:18:50.457Z,96.77
2023-05-19T10:19:50.426Z,94.18
2023-05-19T10:20:50.392Z,94.71
2023-05-19T10:21:50.447Z,94.25
2023-05-19T10:22:50.418Z,94.71
2023-05-19T10:23:50.403Z,93.51
2023-05-19T10:24:50.396Z,95.17
2023-05-19T10:25:50.361Z,95.76
2023-05-19T10:26:50.373Z,97.17
2023-05-19T10:27:50.354Z,96.09
2023-05-19T10:28:50.333Z,97.57
2023-05-19T10:29:50.351Z,94.34
2023-05-19T10:30:50.335Z,99.60
2023-05-19T10:31:50.394Z,96.98
2023-05-19T10:32:50.362Z,98.49
2023-05-19T10:33:50.317Z,98.79
2023-05-19T10:34:50.429Z,93.51
2023-05-19T10:35:50.292Z,96.80
2023-05-19T10:36:50.363Z,99.82
2023-05-19T10:37:50.270Z,100.98
2023-05-19T10:38:50.288Z,98.38
2023-05-19T10:39:50.281Z,99.98
2023-05-19T10:40:50.268Z,96.38
2023-05-19T10:41:50.361Z,97.90
2023-05-19T10:42:50.253Z,102.22
2023-05-19T10:43:50.256Z,101.88
2023-05-19T10:44:50.249Z,97.83
2023-05-19T10:45:50.228Z,98.88
2023-05-19T10:46:50.296Z,100.23
2023-05-19T10:47:50.250Z,97.13
2023-05-19T10:48:50.196Z,98.04
2023-05-19T10:49:50.229Z,94.55
2023-05-19T10:50:50.185Z,98.58
2023-05-19T10:51:50.204Z,97.87
2023-05-19T10:52:50.176Z,100.17
2023-05-19T10:53:50.169Z,96.86
2023-05-19T10:54:50.209Z,96.83
2023-05-19T10:55:50.185Z,101.11
2023-05-19T10:56:50.214Z,98.77
2023-05-19T10:57:50.193Z,102.32
2023-05-19T10:58:50.218Z,98.59
2023-05-19T10:59:50.275Z,99.88
2023-05-19T11:00:50.306Z,96.53
2023-05-19T11:01:50.411Z,102.36
2023-05-19T11:02:50.478Z,101.21
2023-05-19T11:03:50.528Z,99.61
2023-05-19T11:04:51.877Z,100.81
2023-05-19T11:05:50.586Z,100.04
2023-05-19T11:06:50.636Z,101.02
2023-05-19T11:07:50.662Z,102.37
2023-05-19T11:08:50.776Z,101.37
2023-05-19T11:09:50.735Z,100.76
2023-05-19T11:10:50.785Z,103.39
2023-05-19T11:11:50.864Z,98.69
2023-05-19T11:12:52.092Z,102.34
2023-05-19T11:13:50.964Z,103.03
2023-05-19T11:14:50.966Z,99.57
2023-05-19T11:15:51.042Z,101.88
2023-05-19T11:16:51.107Z,101.93
2023-05-19T11:17:51.110Z,102.27
2023-05-19T11:18:51.205Z,101.52
2023-05-19T11:19:51.204Z,106.34
2023-05-19T11:20:51.295Z,102.84
2023-05-19T11:21:51.306Z,100.49
2023-05-19T11:22:51.351Z,100.86
2023-05-19T11:23:51.436Z,105.01
2023-05-19T11:24:51.454Z,105.71
2023-05-19T11:25:51.654Z,102.10
2023-05-19T11:26:51.866Z,101.61
2023-05-19T11:27:51.580Z,99.61
2023-05-19T11:28:51.622Z,99.74
2023-05-19T11:29:51.659Z,103.11
2023-05-19T11:30:51.859Z,102.17
2023-05-19T11:31:51.918Z,100.76
2023-05-19T11:32:51.860Z,106.50
2023-05-19T11:33:51.847Z,101.37
2023-05-19T11:34:51.882Z,104.34
2023-05-19T11:35:51.950Z,104.97
2023-05-19T11:36:52.043Z,103.05
2023-05-19T11:37:52.049Z,104.25
2023-05-19T11:38:52.086Z,105.91
2023-05-19T11:39:52.166Z,105.22
2023-05-19T11:40:52.196Z,106.12
2023-05-19T11:41:52.243Z,105.08
2023-05-19T11:42:52.302Z,99.35
2023-05-19T11:43:52.356Z,102.06
2023-05-19T11:44:52.386Z,106.38
2023-05-19T11:45:52.537Z,104.67
2023-05-19T11:46:52.517Z,104.08
2023-05-19T11:48:53.520Z,107.18
2023-05-19T11:49:52.557Z,107.22
2023-05-19T11:50:52.562Z,108.66
2023-05-19T11:51:52.890Z,102.76
2023-05-19T11:52:52.488Z,98.02
2023-05-19T11:53:52.471Z,102.25
2023-05-19T11:54:52.471Z,100.76
2023-05-19T11:55:52.710Z,105.48
2023-05-19T11:56:52.455Z,96.69
2023-05-19T11:58:02.834Z,107.57
2023-05-19T11:58:53.431Z,107.64
2023-05-19T11:59:52.430Z,106.60
2023-05-19T12:00:52.431Z,102.25
2023-05-19T12:01:52.409Z,99.15
2023-05-19T12:02:52.479Z,100.16
2023-05-19T12:03:52.743Z,101.12
2023-05-19T12:04:52.489Z,107.44
2023-05-19T12:05:52.485Z,109.39
2023-05-19T12:06:52.380Z,106.05
2023-05-19T12:07:52.400Z,110.08
2023-05-19T12:08:52.363Z,109.19
2023-05-19T12:09:52.404Z,106.19
2023-05-19T12:10:52.473Z,104.72
2023-05-19T12:11:52.505Z,106.02
2023-05-19T12:12:52.523Z,107.10
2023-05-19T12:13:52.619Z,108.79
2023-05-19T12:14:52.653Z,109.55
2023-05-19T12:15:52.726Z,110.20
2023-05-19T12:16:52.938Z,111.51
2023-05-19T12:17:52.797Z,112.66
2023-05-19T12:18:52.793Z,111.09
2023-05-19T12:19:52.807Z,109.37
2023-05-19T12:20:52.891Z,106.11
2023-05-19T12:21:53.395Z,109.51
2023-05-19T12:22:52.926Z,112.53
2023-05-19T12:23:53.014Z,112.33
2023-05-19T12:24:53.052Z,108.07
2023-05-19T12:25:53.094Z,106.32
2023-05-19T12:26:53.403Z,111.07
2023-05-19T12:27:53.223Z,113.11
2023-05-19T12:28:53.209Z,111.57
2023-05-19T12:29:53.238Z,104.88
2023-05-19T12:30:53.299Z,111.31
2023-05-19T12:31:53.434Z,111.05
2023-05-19T12:32:53.421Z,107.28
2023-05-19T12:33:53.456Z,113.69
2023-05-19T12:34:53.457Z,111.46
2023-05-19T12:35:53.551Z,110.54
2023-05-19T12:36:53.588Z,111.76
2023-05-19T12:37:53.630Z,108.94
2023-05-19T12:38:53.659Z,106.58
2023-05-19T12:39:53.708Z,106.97
2023-05-19T12:40:53.738Z,110.94
2023-05-19T12:41:53.822Z,115.14
2023-05-19T12:42:53.856Z,111.85
2023-05-19T12:43:53.954Z,116.39
2023-05-19T12:44:53.956Z,119.95
2023-05-19T12:45:53.998Z,121.42
2023-05-19T12:46:54.065Z,120.72
2023-05-19T12:47:54.153Z,123.90